createdAt,value
2023-01-11T00:02:02.156Z,62.89
2023-01-11T00:04:30.760Z,63.85
2023-01-11T00:06:58.253Z,66.12
2023-01-11T00:09:25.160Z,65.63
2023-01-11T00:11:52.012Z,64.99
2023-01-11T00:14:18.887Z,62.35
2023-01-11T00:16:45.722Z,64.86
2023-01-11T00:19:12.721Z,65.19
2023-01-11T00:21:40.873Z,61.03
2023-01-11T00:24:07.834Z,62.19
2023-01-11T00:26:34.746Z,63.73
2023-01-11T00:29:01.522Z,61.27
2023-01-11T00:31:28.341Z,61.87
2023-01-11T00:33:55.213Z,62.03
2023-01-11T00:36:22.000Z,68.24
2023-01-11T00:38:50.185Z,70.87
2023-01-11T00:41:18.279Z,67.65
2023-01-11T00:43:45.185Z,64.44
2023-01-11T00:46:12.007Z,61.24
2023-01-11T00:48:38.889Z,71.27
2023-01-11T00:51:05.814Z,67.03
2023-01-11T00:53:32.594Z,67.75
2023-01-11T00:56:00.819Z,66.39
2023-01-11T00:58:27.635Z,64.90
2023-01-11T01:00:54.390Z,66.25
2023-01-11T01:03:21.155Z,68.20
2023-01-11T01:05:48.032Z,68.40
2023-01-11T01:08:14.783Z,68.60
2023-01-11T01:10:41.582Z,69.07
2023-01-11T01:13:11.533Z,65.81
2023-01-11T01:15:38.417Z,66.07
2023-01-11T01:18:05.390Z,67.24
2023-01-11T01:20:32.256Z,70.29
2023-01-11T01:22:59.070Z,67.76
2023-01-11T01:25:25.897Z,66.97
2023-01-11T01:27:52.824Z,67.01
2023-01-11T01:30:21.000Z,64.39
2023-01-11T01:32:47.850Z,68.73
2023-01-11T01:35:14.686Z,70.31
2023-01-11T01:37:43.420Z,65.49
2023-01-11T01:40:11.519Z,70.63
2023-01-11T01:42:38.339Z,69.01
2023-01-11T01:45:16.496Z,71.05
2023-01-11T01:47:47.293Z,67.67
2023-01-11T01:50:19.516Z,72.42
2023-01-11T01:52:50.609Z,70.03
2023-01-11T01:55:25.243Z,70.64
2023-01-11T01:57:53.299Z,69.03
2023-01-11T02:00:20.816Z,65.69
2023-01-11T02:02:49.565Z,63.95
2023-01-11T02:05:18.573Z,65.38
2023-01-11T02:07:46.495Z,69.40
2023-01-11T02:10:15.691Z,68.10
2023-01-11T02:12:47.856Z,68.92
2023-01-11T02:15:16.222Z,68.74
2023-01-11T02:17:43.087Z,68.14
2023-01-11T02:20:34.917Z,70.32
2023-01-11T02:23:27.670Z,70.09
2023-01-11T02:26:19.150Z,71.89
2023-01-11T02:28:54.030Z,70.26
2023-01-11T02:31:31.416Z,65.81
2023-01-11T02:34:10.472Z,75.20
2023-01-11T02:36:50.942Z,67.55
2023-01-11T02:39:25.231Z,71.71
2023-01-11T02:41:58.789Z,77.17
2023-01-11T02:44:36.069Z,78.93
2023-01-11T02:47:06.905Z,73.12
2023-01-11T02:49:39.620Z,65.59
2023-01-11T02:52:12.738Z,68.07
2023-01-11T02:54:43.591Z,73.51
2023-01-11T02:57:12.033Z,77.05
2023-01-11T02:59:41.478Z,78.61
2023-01-11T03:02:08.379Z,73.76
2023-01-11T03:04:37.288Z,76.43
2023-01-11T03:07:18.134Z,75.68
2023-01-11T03:09:56.403Z,68.08
2023-01-11T03:12:36.167Z,69.62
2023-01-11T03:15:18.867Z,70.69
2023-01-11T03:17:54.614Z,75.02
2023-01-11T03:20:27.051Z,74.18
2023-01-11T03:23:09.962Z,74.75
2023-01-11T03:25:47.457Z,68.64
2023-01-11T03:28:24.411Z,73.66
2023-01-11T03:30:59.704Z,74.82
2023-01-11T03:33:33.531Z,76.30
2023-01-11T03:36:08.376Z,73.72
2023-01-11T03:38:38.408Z,73.52
2023-01-11T03:41:10.563Z,73.53
2023-01-11T03:43:41.177Z,72.59
2023-01-11T03:46:13.005Z,69.15
2023-01-11T03:48:46.521Z,63.00
2023-01-11T03:51:19.426Z,67.14
2023-01-11T03:53:49.538Z,69.15
2023-01-11T03:56:20.906Z,67.20
2023-01-11T03:58:47.823Z,71.30
2023-01-11T04:01:16.561Z,71.83
2023-01-11T04:03:43.424Z,74.26
2023-01-11T04:06:11.758Z,71.13
2023-01-11T04:08:38.508Z,71.33
2023-01-11T04:11:05.943Z,76.08
2023-01-11T04:13:32.818Z,78.49
2023-01-11T04:15:59.730Z,79.47
2023-01-11T04:18:28.051Z,78.83
2023-01-11T04:20:55.017Z,68.59
2023-01-11T04:23:21.830Z,69.36
2023-01-11T04:25:48.725Z,74.83
2023-01-11T04:28:15.468Z,78.79
2023-01-11T04:30:42.307Z,76.64
2023-01-11T04:33:09.069Z,74.77
2023-01-11T04:35:37.323Z,78.69
2023-01-11T04:38:04.200Z,80.58
2023-01-11T04:40:31.089Z,76.93
2023-01-11T04:42:57.915Z,72.42
2023-01-11T04:45:24.743Z,67.94
2023-01-11T04:47:54.166Z,71.39
2023-01-11T04:50:20.962Z,72.93
2023-01-11T04:52:49.200Z,75.24
2023-01-11T04:55:16.178Z,78.62
2023-01-11T04:57:43.696Z,79.86
2023-01-11T05:00:11.667Z,81.07
2023-01-11T05:02:38.805Z,80.31
2023-01-11T05:05:07.270Z,76.62
2023-01-11T05:07:34.119Z,69.05
2023-01-11T05:10:02.377Z,68.21
2023-01-11T05:12:51.673Z,69.25
2023-01-11T05:15:18.840Z,73.88
2023-01-11T05:17:48.993Z,74.78
2023-01-11T05:20:16.995Z,73.36
2023-01-11T05:22:44.200Z,73.63
2023-01-11T05:25:12.713Z,71.75
2023-01-11T05:27:39.902Z,73.25
2023-01-11T05:30:09.149Z,72.62
2023-01-11T05:32:36.245Z,73.43
2023-01-11T05:35:03.871Z,76.87
2023-01-11T05:37:31.328Z,78.57
2023-01-11T05:40:00.969Z,79.38
2023-01-11T05:42:29.657Z,78.28
2023-01-11T05:44:58.250Z,76.86
2023-01-11T05:47:25.622Z,70.70
2023-01-11T05:49:53.452Z,66.42
2023-01-11T05:52:21.323Z,70.36
2023-01-11T05:54:48.913Z,71.78
2023-01-11T05:57:16.590Z,67.48
2023-01-11T05:59:45.718Z,70.59
2023-01-11T06:02:13.107Z,73.13
2023-01-11T06:04:40.821Z,73.23
2023-01-11T06:07:08.603Z,70.91
2023-01-11T06:09:35.872Z,76.35
2023-01-11T06:12:03.679Z,76.10
2023-01-11T06:14:31.353Z,74.40
2023-01-11T06:17:01.803Z,72.48
2023-01-11T06:19:29.212Z,70.83
2023-01-11T06:21:56.508Z,68.46
2023-01-11T06:24:24.101Z,67.59
2023-01-11T06:26:55.852Z,70.91
2023-01-11T06:29:25.739Z,69.02
2023-01-11T06:31:53.379Z,69.35
2023-01-11T06:34:22.408Z,66.59
2023-01-11T06:36:50.008Z,64.91
2023-01-11T06:39:17.438Z,66.15
2023-01-11T06:41:45.084Z,71.68
2023-01-11T06:44:12.614Z,72.95
2023-01-11T06:46:42.770Z,75.62
2023-01-11T06:49:11.159Z,67.68
2023-01-11T06:51:43.462Z,66.63
2023-01-11T06:54:10.822Z,74.06
2023-01-11T06:56:38.380Z,65.47
2023-01-11T06:59:08.655Z,67.19
2023-01-11T07:01:36.497Z,69.16
2023-01-11T07:04:04.288Z,68.93
2023-01-11T07:06:34.987Z,65.64
2023-01-11T07:09:04.245Z,66.66
2023-01-11T07:11:31.900Z,68.50
2023-01-11T07:13:58.877Z,70.43
2023-01-11T07:16:26.301Z,70.08
2023-01-11T07:18:54.119Z,70.51
2023-01-11T07:21:22.213Z,70.96
2023-01-11T07:23:59.184Z,71.23
2023-01-11T07:26:28.003Z,71.78
2023-01-11T07:28:55.677Z,74.51
2023-01-11T07:31:23.062Z,73.48
2023-01-11T07:33:50.225Z,66.00
2023-01-11T07:36:17.953Z,66.56
2023-01-11T07:38:47.249Z,64.50
2023-01-11T07:41:14.624Z,69.18
2023-01-11T07:43:43.755Z,64.61
2023-01-11T07:46:11.265Z,68.16
2023-01-11T07:48:39.030Z,65.46
2023-01-11T07:51:06.278Z,65.87
2023-01-11T07:53:34.006Z,63.50
2023-01-11T07:56:01.626Z,65.44
2023-01-11T07:58:29.079Z,67.47
2023-01-11T08:00:59.583Z,70.56
2023-01-11T08:03:27.152Z,72.49
2023-01-11T08:05:55.574Z,71.90
2023-01-11T08:08:23.099Z,72.79
2023-01-11T08:10:51.267Z,68.49
2023-01-11T08:13:19.228Z,64.37
2023-01-11T08:15:46.733Z,64.09
2023-01-11T08:18:16.238Z,61.88
2023-01-11T08:20:43.927Z,59.13
2023-01-11T08:23:11.674Z,59.03
2023-01-11T08:25:39.840Z,58.92
2023-01-11T08:28:08.267Z,60.89
2023-01-11T08:30:36.036Z,61.84
2023-01-11T08:33:07.379Z,62.12
2023-01-11T08:35:40.047Z,61.09
2023-01-11T08:38:07.846Z,59.08
2023-01-11T08:40:34.881Z,58.51
2023-01-11T08:43:02.306Z,57.95
2023-01-11T08:45:29.823Z,58.66
2023-01-11T08:47:59.908Z,58.69
2023-01-11T08:50:27.717Z,58.24
2023-01-11T08:52:56.492Z,57.76
2023-01-11T08:55:23.873Z,57.63
2023-01-11T08:57:54.220Z,58.19
2023-01-11T09:00:22.008Z,56.82
2023-01-11T09:02:49.712Z,56.54
2023-01-11T09:05:18.383Z,55.31
2023-01-11T09:07:46.161Z,56.30
2023-01-11T09:10:15.370Z,56.23
2023-01-11T09:12:43.685Z,55.58
2023-01-11T09:15:14.699Z,55.05
2023-01-11T09:17:46.784Z,53.89
2023-01-11T09:20:15.115Z,54.34
2023-01-11T09:22:46.800Z,51.88
2023-01-11T09:25:16.304Z,50.86
2023-01-11T09:27:43.856Z,50.02
2023-01-11T09:30:13.465Z,50.09
2023-01-11T09:32:41.460Z,51.58
2023-01-11T09:35:10.164Z,50.81
2023-01-11T09:37:38.478Z,48.73
2023-01-11T09:40:08.235Z,49.52
2023-01-11T09:42:42.555Z,49.83
2023-01-11T09:45:18.591Z,49.92
2023-01-11T09:47:51.890Z,48.91
2023-01-11T09:50:23.684Z,47.62
2023-01-11T09:52:57.013Z,46.91
2023-01-11T09:55:33.234Z,47.32
2023-01-11T09:58:24.668Z,46.54
2023-01-11T10:01:01.359Z,46.33
2023-01-11T10:03:59.473Z,47.40
2023-01-11T10:06:33.499Z,46.90
2023-01-11T10:18:32.759Z,48.40
2023-01-11T10:18:49.353Z,48.65
2023-01-11T10:21:24.466Z,48.28
2023-01-11T10:23:58.653Z,47.11
2023-01-11T10:26:26.923Z,47.03
2023-01-11T10:28:59.898Z,49.13
2023-01-11T10:31:32.660Z,47.89
2023-01-11T10:34:02.433Z,48.37
2023-01-11T10:36:39.353Z,49.31
2023-01-11T10:39:14.109Z,47.78
2023-01-11T10:41:49.720Z,49.25
2023-01-11T10:44:22.067Z,49.28
2023-01-11T10:46:54.040Z,49.99
2023-01-11T10:49:47.871Z,50.79
2023-01-11T10:52:25.868Z,49.49
2023-01-11T10:54:56.351Z,49.95
2023-01-11T10:57:59.368Z,50.28
2023-01-11T11:00:38.945Z,50.26
2023-01-11T11:03:45.323Z,49.16
2023-01-11T11:06:23.871Z,49.90
2023-01-11T11:08:59.983Z,48.70
2023-01-11T11:11:32.659Z,50.99
2023-01-11T11:14:19.622Z,51.24
2023-01-11T11:16:59.619Z,51.17
2023-01-11T11:19:31.956Z,51.49
2023-01-11T11:22:06.139Z,49.84
2023-01-11T11:24:39.190Z,48.97
2023-01-11T11:27:16.984Z,48.78
2023-01-11T11:29:53.115Z,48.31
2023-01-11T11:32:26.374Z,48.26
2023-01-11T11:34:54.970Z,49.63
2023-01-11T11:37:32.024Z,50.27
2023-01-11T11:39:59.729Z,50.97
2023-01-11T11:42:28.171Z,51.11
2023-01-11T11:45:16.248Z,51.35
2023-01-11T11:47:52.833Z,48.86
2023-01-11T11:50:43.072Z,49.24
2023-01-11T11:53:24.152Z,49.25
2023-01-11T11:55:52.781Z,50.13
2023-01-11T11:58:24.168Z,50.81
2023-01-11T12:00:53.364Z,51.67
2023-01-11T12:03:28.371Z,51.55
2023-01-11T12:05:59.817Z,50.79
2023-01-11T12:08:31.825Z,50.74
2023-01-11T12:11:01.940Z,51.12
2023-01-11T12:13:34.835Z,51.22
2023-01-11T12:16:04.561Z,50.73
2023-01-11T12:18:38.770Z,50.75
2023-01-11T12:21:17.429Z,50.84
2023-01-11T12:23:47.186Z,52.55
2023-01-11T12:26:23.571Z,51.56
2023-01-11T12:29:09.987Z,52.51
2023-01-11T12:31:49.114Z,52.08
2023-01-11T12:34:31.499Z,52.21
2023-01-11T12:37:09.691Z,52.83
2023-01-11T12:39:47.227Z,51.23
2023-01-11T12:42:46.898Z,50.05
2023-01-11T12:45:26.636Z,50.09
2023-01-11T12:48:20.995Z,50.89
2023-01-11T12:51:03.240Z,49.00
2023-01-11T12:53:42.101Z,49.75
2023-01-11T12:56:36.280Z,50.22
2023-01-11T12:59:18.612Z,50.54
2023-01-11T13:01:55.847Z,49.58
2023-01-11T13:04:58.619Z,49.04
2023-01-11T13:07:51.345Z,49.21
2023-01-11T13:10:33.454Z,48.68
2023-01-11T13:13:12.347Z,48.85
2023-01-11T13:15:49.535Z,49.17
2023-01-11T13:18:30.228Z,49.30
2023-01-11T13:21:06.792Z,49.53
2023-01-11T13:23:42.250Z,49.63
2023-01-11T13:26:22.043Z,50.34
2023-01-11T13:28:57.186Z,50.14
2023-01-11T13:31:24.989Z,50.65
2023-01-11T13:34:00.958Z,51.06
2023-01-11T13:36:33.616Z,52.04
2023-01-11T13:39:07.640Z,52.21
2023-01-11T13:41:38.358Z,53.11
2023-01-11T13:44:13.484Z,53.34
2023-01-11T13:46:52.146Z,53.85
2023-01-11T13:49:34.947Z,53.41
2023-01-11T13:52:11.919Z,53.60
2023-01-11T13:54:48.108Z,54.86
2023-01-11T13:57:23.450Z,53.70
2023-01-11T13:59:58.296Z,53.41
2023-01-11T14:02:38.032Z,54.32
2023-01-11T14:05:13.631Z,55.46
2023-01-11T14:07:53.711Z,56.34
2023-01-11T14:10:35.899Z,58.18
2023-01-11T14:13:29.883Z,57.83
2023-01-11T14:16:07.645Z,55.70
2023-01-11T14:18:43.865Z,53.83
2023-01-11T14:21:18.885Z,52.60
2023-01-11T14:23:50.304Z,53.68
2023-01-11T14:26:55.526Z,54.71
2023-01-11T14:30:08.361Z,55.73
2023-01-11T14:33:08.597Z,58.18
2023-01-11T14:35:55.454Z,58.28
2023-01-11T14:38:55.342Z,59.52
2023-01-11T14:41:53.014Z,57.66
2023-01-11T14:44:32.952Z,58.86
2023-01-11T14:47:28.055Z,58.72
2023-01-11T14:50:11.822Z,58.52
2023-01-11T14:52:40.996Z,59.22
2023-01-11T14:55:17.281Z,59.82
2023-01-11T14:58:02.284Z,59.60
2023-01-11T15:01:11.570Z,62.27
2023-01-11T15:03:49.698Z,64.70
2023-01-11T15:06:20.212Z,67.77
2023-01-11T15:08:51.167Z,62.57
2023-01-11T15:11:39.896Z,61.65
2023-01-11T15:14:28.565Z,63.11
2023-01-11T15:17:00.944Z,60.79
2023-01-11T15:19:33.876Z,62.85
2023-01-11T15:22:06.215Z,64.48
2023-01-11T15:24:38.803Z,70.29
2023-01-11T15:27:23.292Z,76.16
2023-01-11T15:29:56.497Z,72.66
2023-01-11T15:32:30.689Z,72.02
2023-01-11T15:35:32.822Z,73.11
2023-01-11T15:38:11.895Z,75.21
2023-01-11T15:40:43.044Z,78.76
2023-01-11T15:43:57.622Z,82.50
2023-01-11T15:46:57.355Z,83.09
2023-01-11T15:49:54.876Z,80.34
2023-01-11T15:53:10.659Z,79.86
2023-01-11T15:56:10.916Z,79.82
2023-01-11T15:59:04.611Z,82.14
2023-01-11T16:01:50.087Z,82.25
2023-01-11T16:04:29.513Z,82.44
2023-01-11T16:07:03.872Z,83.66
2023-01-11T16:09:53.277Z,80.95
2023-01-11T16:12:41.393Z,76.83
2023-01-11T16:15:27.968Z,78.18
2023-01-11T16:18:02.157Z,81.38
2023-01-11T16:20:30.186Z,82.51
2023-01-11T16:23:06.807Z,81.70
2023-01-11T16:25:38.755Z,81.67
2023-01-11T16:28:07.761Z,82.91
2023-01-11T16:30:36.809Z,82.87
2023-01-11T16:33:20.785Z,81.38
2023-01-11T16:36:02.773Z,81.61
2023-01-11T16:38:40.557Z,82.35
2023-01-11T16:41:10.220Z,81.90
2023-01-11T16:43:45.624Z,85.67
2023-01-11T16:46:42.650Z,86.25
2023-01-11T16:49:17.161Z,84.39
2023-01-11T16:51:49.346Z,83.29
2023-01-11T16:54:25.602Z,85.12
2023-01-11T16:56:54.614Z,85.34
2023-01-11T16:59:25.699Z,87.36
2023-01-11T17:01:56.775Z,88.96
2023-01-11T17:04:27.709Z,85.12
2023-01-11T17:06:58.415Z,86.91
2023-01-11T17:09:26.141Z,87.31
2023-01-11T17:11:53.453Z,88.21
2023-01-11T17:14:45.669Z,85.10
2023-01-11T17:17:14.283Z,84.31
2023-01-11T17:19:45.608Z,84.55
2023-01-11T17:22:21.898Z,86.05
2023-01-11T17:24:52.607Z,88.29
2023-01-11T17:27:22.680Z,85.69
2023-01-11T17:29:53.726Z,81.72
2023-01-11T17:32:26.971Z,84.16
2023-01-11T17:34:54.588Z,83.16
2023-01-11T17:37:22.241Z,81.13
2023-01-11T17:39:52.117Z,86.00
2023-01-11T17:42:19.840Z,86.38
2023-01-11T17:44:48.712Z,87.06
2023-01-11T17:47:15.664Z,86.93
2023-01-11T17:49:43.992Z,86.35
2023-01-11T17:52:16.842Z,87.45
2023-01-11T17:54:43.736Z,89.16
2023-01-11T17:57:11.058Z,87.48
2023-01-11T17:59:37.807Z,81.05
2023-01-11T18:02:12.138Z,83.79
2023-01-11T18:04:39.300Z,78.96
2023-01-11T18:07:15.222Z,81.99
2023-01-11T18:09:45.547Z,87.97
2023-01-11T18:12:16.314Z,90.95
2023-01-11T18:14:50.344Z,91.25
2023-01-11T18:17:32.404Z,85.41
2023-01-11T18:20:00.135Z,78.68
2023-01-11T18:22:33.154Z,76.99
2023-01-11T18:25:01.280Z,76.39
2023-01-11T18:27:30.555Z,78.05
2023-01-11T18:30:00.160Z,78.82
2023-01-11T18:32:33.969Z,80.60
2023-01-11T18:35:01.247Z,85.87
2023-01-11T18:37:28.332Z,86.82
2023-01-11T18:39:58.302Z,85.41
2023-01-11T18:42:29.437Z,80.52
2023-01-11T18:44:56.317Z,79.66
2023-01-11T18:47:24.909Z,75.02
2023-01-11T18:49:52.839Z,77.90
2023-01-11T18:52:22.003Z,76.31
2023-01-11T18:54:48.820Z,79.34
2023-01-11T18:57:17.207Z,76.64
2023-01-11T18:59:47.193Z,79.65
2023-01-11T19:02:21.847Z,81.18
2023-01-11T19:04:49.621Z,83.44
2023-01-11T19:07:16.876Z,82.59
2023-01-11T19:09:44.072Z,79.01
2023-01-11T19:12:11.115Z,78.01
2023-01-11T19:14:39.608Z,80.64
2023-01-11T19:17:07.569Z,75.63
2023-01-11T19:19:34.810Z,77.42
2023-01-11T19:22:01.998Z,77.10
2023-01-11T19:24:28.932Z,78.53
2023-01-11T19:26:56.034Z,81.91
2023-01-11T19:29:22.830Z,77.88
2023-01-11T19:31:52.479Z,80.26
2023-01-11T19:34:19.647Z,75.47
2023-01-11T19:36:46.681Z,73.39
2023-01-11T19:39:13.592Z,74.97
2023-01-11T19:41:40.436Z,79.89
2023-01-11T19:44:07.290Z,73.26
2023-01-11T19:46:34.190Z,73.17
2023-01-11T19:49:02.499Z,74.30
2023-01-11T19:51:29.325Z,70.48
2023-01-11T19:53:56.504Z,66.82
2023-01-11T19:56:23.264Z,72.32
2023-01-11T19:58:50.118Z,72.89
2023-01-11T20:01:17.268Z,74.10
2023-01-11T20:03:44.049Z,69.67
2023-01-11T20:06:12.575Z,75.28
2023-01-11T20:08:40.107Z,77.04
2023-01-11T20:11:08.498Z,70.08
2023-01-11T20:13:35.376Z,70.37
2023-01-11T20:16:05.365Z,74.04
2023-01-11T20:18:32.833Z,73.97
2023-01-11T20:21:00.008Z,72.51
2023-01-11T20:23:30.113Z,76.21
2023-01-11T20:26:00.915Z,77.56
2023-01-11T20:28:27.874Z,76.44
2023-01-11T20:30:54.900Z,75.92
2023-01-11T20:33:21.760Z,76.04
2023-01-11T20:35:48.600Z,72.91
2023-01-11T20:38:15.391Z,73.33
2023-01-11T20:40:43.714Z,71.82
2023-01-11T20:43:10.555Z,64.65
2023-01-11T20:45:37.434Z,66.99
2023-01-11T20:48:04.360Z,65.22
2023-01-11T20:50:31.239Z,68.10
2023-01-11T20:52:57.995Z,71.02
2023-01-11T20:55:24.827Z,72.14
2023-01-11T20:57:53.225Z,72.11
2023-01-11T21:00:21.017Z,74.43
2023-01-11T21:02:48.726Z,74.68
2023-01-11T21:05:15.974Z,70.26
2023-01-11T21:07:42.780Z,75.30
2023-01-11T21:10:10.701Z,74.09
2023-01-11T21:15:05.675Z,73.75
2023-01-11T21:17:32.453Z,74.86
2023-01-11T21:19:59.190Z,69.85
2023-01-11T21:22:25.891Z,66.78
2023-01-11T21:24:52.700Z,72.84
2023-01-11T21:27:19.441Z,71.24
2023-01-11T21:29:46.282Z,71.31
2023-01-11T21:32:14.395Z,73.39
2023-01-11T21:34:41.313Z,73.58
2023-01-11T21:37:08.135Z,71.04
2023-01-11T21:39:34.896Z,74.44
2023-01-11T21:42:01.697Z,80.69
2023-01-11T21:44:30.123Z,81.31
2023-01-11T21:46:57.151Z,83.71
2023-01-11T21:49:25.452Z,83.61
2023-01-11T21:51:52.698Z,88.28
2023-01-11T21:54:19.790Z,94.13
2023-01-11T21:56:47.159Z,96.75
2023-01-11T21:59:14.451Z,98.26
2023-01-11T22:01:43.595Z,98.74
2023-01-11T22:04:12.036Z,100.00
2023-01-11T22:06:42.085Z,100.00
2023-01-11T22:09:10.504Z,100.00
2023-01-11T22:11:37.641Z,100.00
2023-01-11T22:14:05.133Z,100.00
2023-01-11T22:16:33.112Z,100.00
2023-01-11T22:19:01.094Z,100.00
2023-01-11T22:21:28.462Z,100.00
2023-01-11T22:23:58.436Z,100.00
2023-01-11T22:26:26.397Z,100.00
2023-01-11T22:28:54.726Z,100.00
2023-01-11T22:31:21.906Z,100.00
2023-01-11T22:33:48.915Z,100.00
2023-01-11T22:36:15.847Z,100.00
2023-01-11T22:38:43.065Z,100.00
2023-01-11T22:41:11.280Z,100.00
2023-01-11T22:43:38.073Z,100.00
2023-01-11T22:46:05.209Z,100.00
2023-01-11T22:48:32.041Z,100.00
2023-01-11T22:50:58.967Z,100.00
2023-01-11T22:53:25.781Z,100.00
2023-01-11T22:55:52.712Z,100.00
2023-01-11T22:58:20.931Z,100.00
2023-01-11T23:00:48.560Z,100.00
2023-01-11T23:03:15.540Z,100.00
2023-01-11T23:05:44.856Z,100.00
2023-01-11T23:08:12.377Z,100.00
2023-01-11T23:10:39.314Z,100.00
2023-01-11T23:14:02.828Z,100.00
2023-01-11T23:16:49.926Z,100.00
2023-01-11T23:22:54.178Z,100.00
2023-01-11T23:32:40.704Z,100.00
2023-01-11T23:35:52.741Z,100.00
2023-01-11T23:38:48.917Z,100.00
2023-01-11T23:41:29.176Z,100.00
2023-01-11T23:47:39.635Z,100.00
2023-01-11T23:54:24.471Z,100.00
2023-01-11T23:57:45.409Z,100.00
